sensor_id;sensor_type;location;lat;lon;timestamp;temperature;humidity
22108;DHT22;11220;48.812;9.128;2023-07-13T00:01:44;21.40;90.20
22108;DHT22;11220;48.812;9.128;2023-07-13T00:04:11;21.40;90.10
22108;DHT22;11220;48.812;9.128;2023-07-13T00:06:37;21.30;90.10
22108;DHT22;11220;48.812;9.128;2023-07-13T00:09:03;21.30;89.80
22108;DHT22;11220;48.812;9.128;2023-07-13T00:11:28;21.30;89.40
22108;DHT22;11220;48.812;9.128;2023-07-13T00:13:54;21.30;89.30
22108;DHT22;11220;48.812;9.128;2023-07-13T00:16:19;21.40;89.20
22108;DHT22;11220;48.812;9.128;2023-07-13T00:18:46;21.20;89.00
22108;DHT22;11220;48.812;9.128;2023-07-13T00:21:14;21.90;89.20
22108;DHT22;11220;48.812;9.128;2023-07-13T00:23:41;21.20;88.70
22108;DHT22;11220;48.812;9.128;2023-07-13T00:26:09;21.20;88.50
22108;DHT22;11220;48.812;9.128;2023-07-13T00:28:35;21.20;88.40
22108;DHT22;11220;48.812;9.128;2023-07-13T00:31:01;21.10;88.40
22108;DHT22;11220;48.812;9.128;2023-07-13T00:33:30;21.10;88.40
22108;DHT22;11220;48.812;9.128;2023-07-13T00:35:56;21.10;88.90
22108;DHT22;11220;48.812;9.128;2023-07-13T00:38:22;21.10;89.20
22108;DHT22;11220;48.812;9.128;2023-07-13T00:40:48;21.10;89.40
22108;DHT22;11220;48.812;9.128;2023-07-13T00:43:17;21.00;89.50
22108;DHT22;11220;48.812;9.128;2023-07-13T00:48:12;21.60;89.50
22108;DHT22;11220;48.812;9.128;2023-07-13T00:50:40;20.90;88.80
22108;DHT22;11220;48.812;9.128;2023-07-13T00:53:07;20.90;89.00
22108;DHT22;11220;48.812;9.128;2023-07-13T00:55:34;20.90;88.70
22108;DHT22;11220;48.812;9.128;2023-07-13T00:58:00;20.80;89.20
22108;DHT22;11220;48.812;9.128;2023-07-13T01:00:29;20.80;88.80
22108;DHT22;11220;48.812;9.128;2023-07-13T01:02:54;21.10;89.40
22108;DHT22;11220;48.812;9.128;2023-07-13T01:05:21;20.80;89.60
22108;DHT22;11220;48.812;9.128;2023-07-13T01:07:50;20.80;89.60
22108;DHT22;11220;48.812;9.128;2023-07-13T01:10:20;20.70;89.60
22108;DHT22;11220;48.812;9.128;2023-07-13T01:12:46;20.70;89.70
22108;DHT22;11220;48.812;9.128;2023-07-13T01:18:24;20.60;89.00
22108;DHT22;11220;48.812;9.128;2023-07-13T01:20:52;20.60;89.10
22108;DHT22;11220;48.812;9.128;2023-07-13T01:23:17;20.60;89.50
22108;DHT22;11220;48.812;9.128;2023-07-13T01:25:44;20.60;89.50
22108;DHT22;11220;48.812;9.128;2023-07-13T01:28:10;20.60;89.30
22108;DHT22;11220;48.812;9.128;2023-07-13T01:30:36;20.60;89.10
22108;DHT22;11220;48.812;9.128;2023-07-13T01:33:08;20.50;89.30
22108;DHT22;11220;48.812;9.128;2023-07-13T01:35:35;20.50;89.60
22108;DHT22;11220;48.812;9.128;2023-07-13T01:38:00;20.50;89.70
22108;DHT22;11220;48.812;9.128;2023-07-13T01:40:27;20.40;89.70
22108;DHT22;11220;48.812;9.128;2023-07-13T01:42:53;20.40;90.00
22108;DHT22;11220;48.812;9.128;2023-07-13T01:45:18;20.40;90.10
22108;DHT22;11220;48.812;9.128;2023-07-13T01:47:44;20.30;90.10
22108;DHT22;11220;48.812;9.128;2023-07-13T01:50:10;20.30;89.90
22108;DHT22;11220;48.812;9.128;2023-07-13T01:52:35;20.30;90.00
22108;DHT22;11220;48.812;9.128;2023-07-13T01:55:01;20.30;90.00
22108;DHT22;11220;48.812;9.128;2023-07-13T01:57:27;20.30;90.00
22108;DHT22;11220;48.812;9.128;2023-07-13T01:59:53;20.20;90.00
22108;DHT22;11220;48.812;9.128;2023-07-13T02:02:18;20.20;90.10
22108;DHT22;11220;48.812;9.128;2023-07-13T02:04:44;20.20;90.30
22108;DHT22;11220;48.812;9.128;2023-07-13T02:07:10;20.20;90.30
22108;DHT22;11220;48.812;9.128;2023-07-13T02:09:36;20.20;90.30
22108;DHT22;11220;48.812;9.128;2023-07-13T02:12:01;20.20;90.40
22108;DHT22;11220;48.812;9.128;2023-07-13T02:14:27;20.20;90.50
22108;DHT22;11220;48.812;9.128;2023-07-13T02:16:52;20.20;90.50
22108;DHT22;11220;48.812;9.128;2023-07-13T02:19:18;20.50;90.50
22108;DHT22;11220;48.812;9.128;2023-07-13T02:21:43;20.70;90.60
22108;DHT22;11220;48.812;9.128;2023-07-13T02:24:09;20.10;90.40
22108;DHT22;11220;48.812;9.128;2023-07-13T02:26:35;20.10;90.50
22108;DHT22;11220;48.812;9.128;2023-07-13T02:29:01;20.00;90.50
22108;DHT22;11220;48.812;9.128;2023-07-13T02:31:26;20.00;90.50
22108;DHT22;11220;48.812;9.128;2023-07-13T02:33:52;20.00;90.50
22108;DHT22;11220;48.812;9.128;2023-07-13T02:36:18;20.00;90.60
22108;DHT22;11220;48.812;9.128;2023-07-13T02:38:44;20.00;90.70
22108;DHT22;11220;48.812;9.128;2023-07-13T02:41:10;20.00;90.50
22108;DHT22;11220;48.812;9.128;2023-07-13T02:43:38;20.30;90.80
22108;DHT22;11220;48.812;9.128;2023-07-13T02:46:03;19.90;90.60
22108;DHT22;11220;48.812;9.128;2023-07-13T02:48:36;19.90;90.60
22108;DHT22;11220;48.812;9.128;2023-07-13T02:51:02;19.90;90.70
22108;DHT22;11220;48.812;9.128;2023-07-13T02:53:27;19.90;90.90
22108;DHT22;11220;48.812;9.128;2023-07-13T02:55:53;20.50;91.10
22108;DHT22;11220;48.812;9.128;2023-07-13T02:58:18;19.80;91.00
22108;DHT22;11220;48.812;9.128;2023-07-13T03:00:45;20.00;91.10
22108;DHT22;11220;48.812;9.128;2023-07-13T03:03:12;19.70;91.00
22108;DHT22;11220;48.812;9.128;2023-07-13T03:05:40;19.70;91.00
22108;DHT22;11220;48.812;9.128;2023-07-13T03:08:06;19.70;91.00
22108;DHT22;11220;48.812;9.128;2023-07-13T03:10:32;20.20;91.20
22108;DHT22;11220;48.812;9.128;2023-07-13T03:12:58;19.60;91.30
22108;DHT22;11220;48.812;9.128;2023-07-13T03:15:23;19.60;91.40
22108;DHT22;11220;48.812;9.128;2023-07-13T03:17:49;20.00;91.70
22108;DHT22;11220;48.812;9.128;2023-07-13T03:20:14;19.50;91.70
22108;DHT22;11220;48.812;9.128;2023-07-13T03:22:40;19.50;91.80
22108;DHT22;11220;48.812;9.128;2023-07-13T03:30:09;19.40;92.20
22108;DHT22;11220;48.812;9.128;2023-07-13T03:32:35;19.40;92.40
22108;DHT22;11220;48.812;9.128;2023-07-13T03:35:00;19.80;92.70
22108;DHT22;11220;48.812;9.128;2023-07-13T03:37:26;19.40;92.60
22108;DHT22;11220;48.812;9.128;2023-07-13T03:39:52;19.40;92.60
22108;DHT22;11220;48.812;9.128;2023-07-13T03:42:17;19.40;92.60
22108;DHT22;11220;48.812;9.128;2023-07-13T03:44:43;19.40;92.70
22108;DHT22;11220;48.812;9.128;2023-07-13T03:47:17;19.40;92.90
22108;DHT22;11220;48.812;9.128;2023-07-13T03:49:43;19.40;93.00
22108;DHT22;11220;48.812;9.128;2023-07-13T03:52:08;19.40;93.00
22108;DHT22;11220;48.812;9.128;2023-07-13T03:54:34;19.40;93.10
22108;DHT22;11220;48.812;9.128;2023-07-13T03:56:59;19.40;93.00
22108;DHT22;11220;48.812;9.128;2023-07-13T03:59:25;19.40;93.10
22108;DHT22;11220;48.812;9.128;2023-07-13T04:01:50;19.40;93.10
22108;DHT22;11220;48.812;9.128;2023-07-13T04:04:16;19.40;93.00
22108;DHT22;11220;48.812;9.128;2023-07-13T04:06:41;20.10;93.40
22108;DHT22;11220;48.812;9.128;2023-07-13T04:09:07;19.30;93.40
22108;DHT22;11220;48.812;9.128;2023-07-13T04:11:34;20.50;93.80
22108;DHT22;11220;48.812;9.128;2023-07-13T04:14:02;19.40;93.50
22108;DHT22;11220;48.812;9.128;2023-07-13T04:16:27;19.30;93.60
22108;DHT22;11220;48.812;9.128;2023-07-13T04:18:54;19.30;93.50
22108;DHT22;11220;48.812;9.128;2023-07-13T04:21:25;19.70;93.60
22108;DHT22;11220;48.812;9.128;2023-07-13T04:23:50;19.30;93.60
22108;DHT22;11220;48.812;9.128;2023-07-13T04:26:16;19.40;93.50
22108;DHT22;11220;48.812;9.128;2023-07-13T04:28:41;19.40;93.60
22108;DHT22;11220;48.812;9.128;2023-07-13T04:31:07;19.40;93.90
22108;DHT22;11220;48.812;9.128;2023-07-13T04:33:33;19.40;93.90
22108;DHT22;11220;48.812;9.128;2023-07-13T04:35:58;19.50;93.80
22108;DHT22;11220;48.812;9.128;2023-07-13T04:38:27;19.40;93.60
22108;DHT22;11220;48.812;9.128;2023-07-13T04:40:55;19.40;93.40
22108;DHT22;11220;48.812;9.128;2023-07-13T04:43:22;19.40;93.40
22108;DHT22;11220;48.812;9.128;2023-07-13T04:45:48;19.40;93.50
22108;DHT22;11220;48.812;9.128;2023-07-13T04:48:13;19.40;93.60
22108;DHT22;11220;48.812;9.128;2023-07-13T04:50:39;19.40;93.80
22108;DHT22;11220;48.812;9.128;2023-07-13T04:53:05;19.40;93.80
22108;DHT22;11220;48.812;9.128;2023-07-13T04:55:31;19.40;93.80
22108;DHT22;11220;48.812;9.128;2023-07-13T04:57:57;19.50;93.70
22108;DHT22;11220;48.812;9.128;2023-07-13T05:00:26;19.40;93.70
22108;DHT22;11220;48.812;9.128;2023-07-13T05:02:53;19.40;93.60
22108;DHT22;11220;48.812;9.128;2023-07-13T05:05:19;19.30;93.60
22108;DHT22;11220;48.812;9.128;2023-07-13T05:07:44;19.30;93.60
22108;DHT22;11220;48.812;9.128;2023-07-13T05:10:10;19.30;93.80
22108;DHT22;11220;48.812;9.128;2023-07-13T05:12:36;19.30;94.10
22108;DHT22;11220;48.812;9.128;2023-07-13T05:15:02;19.30;94.10
22108;DHT22;11220;48.812;9.128;2023-07-13T05:17:28;19.30;94.40
22108;DHT22;11220;48.812;9.128;2023-07-13T05:19:53;19.40;94.50
22108;DHT22;11220;48.812;9.128;2023-07-13T05:22:19;19.40;94.60
22108;DHT22;11220;48.812;9.128;2023-07-13T05:24:44;19.50;94.70
22108;DHT22;11220;48.812;9.128;2023-07-13T05:27:10;19.50;94.60
22108;DHT22;11220;48.812;9.128;2023-07-13T05:29:36;19.50;94.70
22108;DHT22;11220;48.812;9.128;2023-07-13T05:32:02;19.60;94.30
22108;DHT22;11220;48.812;9.128;2023-07-13T05:34:28;19.60;94.00
22108;DHT22;11220;48.812;9.128;2023-07-13T05:36:54;19.60;93.90
22108;DHT22;11220;48.812;9.128;2023-07-13T05:39:19;19.70;94.10
22108;DHT22;11220;48.812;9.128;2023-07-13T05:41:45;19.70;94.30
22108;DHT22;11220;48.812;9.128;2023-07-13T05:44:11;19.70;94.70
22108;DHT22;11220;48.812;9.128;2023-07-13T05:46:36;19.70;94.70
22108;DHT22;11220;48.812;9.128;2023-07-13T05:49:05;20.50;94.80
22108;DHT22;11220;48.812;9.128;2023-07-13T05:51:30;20.20;94.80
22108;DHT22;11220;48.812;9.128;2023-07-13T05:53:56;19.80;94.60
22108;DHT22;11220;48.812;9.128;2023-07-13T05:56:21;20.70;94.70
22108;DHT22;11220;48.812;9.128;2023-07-13T05:58:48;19.80;94.00
22108;DHT22;11220;48.812;9.128;2023-07-13T06:01:15;20.80;94.20
22108;DHT22;11220;48.812;9.128;2023-07-13T06:03:41;19.90;93.50
22108;DHT22;11220;48.812;9.128;2023-07-13T06:06:08;19.90;92.40
22108;DHT22;11220;48.812;9.128;2023-07-13T06:08:34;19.90;91.50
22108;DHT22;11220;48.812;9.128;2023-07-13T06:11:07;19.90;91.00
22108;DHT22;11220;48.812;9.128;2023-07-13T06:13:33;19.90;91.10
22108;DHT22;11220;48.812;9.128;2023-07-13T06:15:59;21.10;91.30
22108;DHT22;11220;48.812;9.128;2023-07-13T06:18:24;19.90;90.30
22108;DHT22;11220;48.812;9.128;2023-07-13T06:20:50;19.90;88.60
22108;DHT22;11220;48.812;9.128;2023-07-13T06:23:15;20.00;88.80
22108;DHT22;11220;48.812;9.128;2023-07-13T06:25:41;19.90;87.70
22108;DHT22;11220;48.812;9.128;2023-07-13T06:28:08;19.90;86.70
22108;DHT22;11220;48.812;9.128;2023-07-13T06:30:33;20.00;86.20
22108;DHT22;11220;48.812;9.128;2023-07-13T06:32:59;19.90;85.30
22108;DHT22;11220;48.812;9.128;2023-07-13T06:35:24;19.90;83.90
22108;DHT22;11220;48.812;9.128;2023-07-13T06:37:50;20.00;83.40
22108;DHT22;11220;48.812;9.128;2023-07-13T06:40:16;20.00;83.80
22108;DHT22;11220;48.812;9.128;2023-07-13T06:42:42;20.00;84.20
22108;DHT22;11220;48.812;9.128;2023-07-13T06:45:08;20.00;84.20
22108;DHT22;11220;48.812;9.128;2023-07-13T06:47:33;20.10;84.20
22108;DHT22;11220;48.812;9.128;2023-07-13T06:50:00;20.00;82.90
22108;DHT22;11220;48.812;9.128;2023-07-13T06:52:26;20.10;82.50
22108;DHT22;11220;48.812;9.128;2023-07-13T06:54:51;20.10;81.50
22108;DHT22;11220;48.812;9.128;2023-07-13T06:57:17;20.10;80.90
22108;DHT22;11220;48.812;9.128;2023-07-13T06:59:42;20.10;80.70
22108;DHT22;11220;48.812;9.128;2023-07-13T07:02:10;20.20;81.20
22108;DHT22;11220;48.812;9.128;2023-07-13T07:04:36;20.20;80.50
22108;DHT22;11220;48.812;9.128;2023-07-13T07:07:01;20.20;80.20
22108;DHT22;11220;48.812;9.128;2023-07-13T07:09:27;20.20;80.60
22108;DHT22;11220;48.812;9.128;2023-07-13T07:11:54;20.20;80.60
22108;DHT22;11220;48.812;9.128;2023-07-13T07:14:20;20.20;80.60
22108;DHT22;11220;48.812;9.128;2023-07-13T07:16:46;20.20;80.20
22108;DHT22;11220;48.812;9.128;2023-07-13T07:19:11;20.20;80.40
22108;DHT22;11220;48.812;9.128;2023-07-13T07:21:36;20.30;80.40
22108;DHT22;11220;48.812;9.128;2023-07-13T07:24:02;20.30;80.20
22108;DHT22;11220;48.812;9.128;2023-07-13T07:26:30;20.30;80.20
22108;DHT22;11220;48.812;9.128;2023-07-13T07:28:55;20.30;80.60
22108;DHT22;11220;48.812;9.128;2023-07-13T07:31:21;20.30;80.20
22108;DHT22;11220;48.812;9.128;2023-07-13T07:33:46;20.40;79.70
22108;DHT22;11220;48.812;9.128;2023-07-13T07:36:12;20.40;79.60
22108;DHT22;11220;48.812;9.128;2023-07-13T07:38:38;20.40;79.70
22108;DHT22;11220;48.812;9.128;2023-07-13T07:41:04;20.40;80.20
22108;DHT22;11220;48.812;9.128;2023-07-13T07:43:30;20.40;79.60
22108;DHT22;11220;48.812;9.128;2023-07-13T07:45:56;20.50;79.00
22108;DHT22;11220;48.812;9.128;2023-07-13T07:48:22;20.50;78.50
22108;DHT22;11220;48.812;9.128;2023-07-13T07:50:47;20.50;79.00
22108;DHT22;11220;48.812;9.128;2023-07-13T07:53:13;20.60;79.30
22108;DHT22;11220;48.812;9.128;2023-07-13T07:55:38;20.60;77.30
22108;DHT22;11220;48.812;9.128;2023-07-13T07:58:05;21.30;77.40
22108;DHT22;11220;48.812;9.128;2023-07-13T08:00:31;20.60;76.80
22108;DHT22;11220;48.812;9.128;2023-07-13T08:02:58;20.70;76.80
22108;DHT22;11220;48.812;9.128;2023-07-13T08:05:24;20.70;77.00
22108;DHT22;11220;48.812;9.128;2023-07-13T08:07:49;20.70;77.30
22108;DHT22;11220;48.812;9.128;2023-07-13T08:10:15;20.70;77.00
22108;DHT22;11220;48.812;9.128;2023-07-13T08:12:41;20.80;76.50
22108;DHT22;11220;48.812;9.128;2023-07-13T08:15:10;20.70;76.20
22108;DHT22;11220;48.812;9.128;2023-07-13T08:17:36;20.80;75.40
22108;DHT22;11220;48.812;9.128;2023-07-13T08:20:02;20.80;75.80
22108;DHT22;11220;48.812;9.128;2023-07-13T08:22:27;20.80;75.60
22108;DHT22;11220;48.812;9.128;2023-07-13T08:24:53;20.80;76.70
22108;DHT22;11220;48.812;9.128;2023-07-13T08:27:26;20.90;78.30
22108;DHT22;11220;48.812;9.128;2023-07-13T08:29:52;20.90;79.20
22108;DHT22;11220;48.812;9.128;2023-07-13T08:32:20;20.90;79.70
22108;DHT22;11220;48.812;9.128;2023-07-13T08:34:46;21.00;79.90
22108;DHT22;11220;48.812;9.128;2023-07-13T08:37:11;21.00;79.90
22108;DHT22;11220;48.812;9.128;2023-07-13T08:39:37;21.10;80.20
22108;DHT22;11220;48.812;9.128;2023-07-13T08:45:00;21.20;80.40
22108;DHT22;11220;48.812;9.128;2023-07-13T08:47:31;21.20;80.60
22108;DHT22;11220;48.812;9.128;2023-07-13T08:49:58;21.30;80.40
22108;DHT22;11220;48.812;9.128;2023-07-13T08:52:37;21.30;80.40
22108;DHT22;11220;48.812;9.128;2023-07-13T08:55:15;21.40;81.00
22108;DHT22;11220;48.812;9.128;2023-07-13T08:57:53;21.60;81.20
22108;DHT22;11220;48.812;9.128;2023-07-13T09:00:19;21.40;79.90
22108;DHT22;11220;48.812;9.128;2023-07-13T09:02:57;21.50;80.30
22108;DHT22;11220;48.812;9.128;2023-07-13T09:05:31;21.50;81.70
22108;DHT22;11220;48.812;9.128;2023-07-13T09:09:09;21.50;81.30
22108;DHT22;11220;48.812;9.128;2023-07-13T09:14:05;21.70;81.20
22108;DHT22;11220;48.812;9.128;2023-07-13T09:16:32;21.70;81.60
22108;DHT22;11220;48.812;9.128;2023-07-13T09:19:06;21.70;82.00
22108;DHT22;11220;48.812;9.128;2023-07-13T09:21:39;21.80;80.30
22108;DHT22;11220;48.812;9.128;2023-07-13T09:24:29;21.80;80.90
22108;DHT22;11220;48.812;9.128;2023-07-13T09:26:58;21.80;81.70
22108;DHT22;11220;48.812;9.128;2023-07-13T09:29:29;21.80;81.40
22108;DHT22;11220;48.812;9.128;2023-07-13T09:31:57;21.80;82.30
22108;DHT22;11220;48.812;9.128;2023-07-13T09:34:25;21.80;82.80
22108;DHT22;11220;48.812;9.128;2023-07-13T09:36:50;21.90;83.30
22108;DHT22;11220;48.812;9.128;2023-07-13T09:39:33;22.00;83.10
22108;DHT22;11220;48.812;9.128;2023-07-13T09:42:06;22.00;82.80
22108;DHT22;11220;48.812;9.128;2023-07-13T09:44:38;22.00;81.40
22108;DHT22;11220;48.812;9.128;2023-07-13T09:47:16;22.00;80.10
22108;DHT22;11220;48.812;9.128;2023-07-13T09:49:42;22.00;80.80
22108;DHT22;11220;48.812;9.128;2023-07-13T09:52:12;22.00;81.70
22108;DHT22;11220;48.812;9.128;2023-07-13T09:54:39;22.00;82.50
22108;DHT22;11220;48.812;9.128;2023-07-13T09:57:19;22.00;82.40
22108;DHT22;11220;48.812;9.128;2023-07-13T09:59:49;22.00;81.30
22108;DHT22;11220;48.812;9.128;2023-07-13T10:02:34;22.00;81.10
22108;DHT22;11220;48.812;9.128;2023-07-13T10:05:04;22.00;81.60
22108;DHT22;11220;48.812;9.128;2023-07-13T10:07:32;22.00;81.30
22108;DHT22;11220;48.812;9.128;2023-07-13T10:09:59;22.00;79.00
22108;DHT22;11220;48.812;9.128;2023-07-13T10:12:26;22.00;77.90
22108;DHT22;11220;48.812;9.128;2023-07-13T10:14:55;22.00;78.40
22108;DHT22;11220;48.812;9.128;2023-07-13T10:17:31;22.00;79.90
22108;DHT22;11220;48.812;9.128;2023-07-13T10:20:03;22.10;80.10
22108;DHT22;11220;48.812;9.128;2023-07-13T10:24:59;22.00;76.90
22108;DHT22;11220;48.812;9.128;2023-07-13T10:27:34;22.10;79.50
22108;DHT22;11220;48.812;9.128;2023-07-13T10:30:21;22.10;78.50
22108;DHT22;11220;48.812;9.128;2023-07-13T10:32:48;22.00;79.10
22108;DHT22;11220;48.812;9.128;2023-07-13T10:35:16;22.10;79.60
22108;DHT22;11220;48.812;9.128;2023-07-13T10:37:53;22.10;79.10
22108;DHT22;11220;48.812;9.128;2023-07-13T10:40:29;22.10;79.70
22108;DHT22;11220;48.812;9.128;2023-07-13T10:42:59;22.10;78.80
22108;DHT22;11220;48.812;9.128;2023-07-13T10:45:26;22.10;78.80
22108;DHT22;11220;48.812;9.128;2023-07-13T10:47:54;22.10;79.10
22108;DHT22;11220;48.812;9.128;2023-07-13T10:50:26;22.10;79.70
22108;DHT22;11220;48.812;9.128;2023-07-13T10:52:54;22.10;80.20
22108;DHT22;11220;48.812;9.128;2023-07-13T10:58:20;22.20;79.50
22108;DHT22;11220;48.812;9.128;2023-07-13T11:01:01;22.20;79.20
22108;DHT22;11220;48.812;9.128;2023-07-13T11:03:28;22.20;79.40
22108;DHT22;11220;48.812;9.128;2023-07-13T11:06:17;22.10;79.00
22108;DHT22;11220;48.812;9.128;2023-07-13T11:08:56;22.20;80.00
22108;DHT22;11220;48.812;9.128;2023-07-13T11:18:51;22.30;82.50
22108;DHT22;11220;48.812;9.128;2023-07-13T11:21:19;22.40;82.60
22108;DHT22;11220;48.812;9.128;2023-07-13T11:23:52;22.40;82.80
22108;DHT22;11220;48.812;9.128;2023-07-13T11:29:32;22.50;81.20
22108;DHT22;11220;48.812;9.128;2023-07-13T11:32:01;22.50;79.90
22108;DHT22;11220;48.812;9.128;2023-07-13T11:34:33;22.40;78.50
22108;DHT22;11220;48.812;9.128;2023-07-13T11:37:02;22.40;77.60
22108;DHT22;11220;48.812;9.128;2023-07-13T11:39:32;22.30;77.20
22108;DHT22;11220;48.812;9.128;2023-07-13T11:42:02;22.60;78.50
22108;DHT22;11220;48.812;9.128;2023-07-13T11:44:33;22.30;78.90
22108;DHT22;11220;48.812;9.128;2023-07-13T11:47:09;22.70;80.10
22108;DHT22;11220;48.812;9.128;2023-07-13T11:49:42;22.40;79.70
22108;DHT22;11220;48.812;9.128;2023-07-13T11:52:13;22.40;78.60
22108;DHT22;11220;48.812;9.128;2023-07-13T11:54:51;22.40;80.40
22108;DHT22;11220;48.812;9.128;2023-07-13T11:57:26;22.60;80.30
22108;DHT22;11220;48.812;9.128;2023-07-13T11:59:55;22.60;80.80
22108;DHT22;11220;48.812;9.128;2023-07-13T12:02:33;22.70;81.50
22108;DHT22;11220;48.812;9.128;2023-07-13T12:05:00;22.70;80.80
22108;DHT22;11220;48.812;9.128;2023-07-13T12:07:30;22.70;80.20
22108;DHT22;11220;48.812;9.128;2023-07-13T12:10:23;23.20;79.60
22108;DHT22;11220;48.812;9.128;2023-07-13T12:12:58;22.80;79.20
22108;DHT22;11220;48.812;9.128;2023-07-13T12:18:09;22.90;78.50
22108;DHT22;11220;48.812;9.128;2023-07-13T12:20:38;22.80;78.90
22108;DHT22;11220;48.812;9.128;2023-07-13T12:23:23;22.80;78.60
22108;DHT22;11220;48.812;9.128;2023-07-13T12:25:51;22.80;77.40
22108;DHT22;11220;48.812;9.128;2023-07-13T12:28:35;22.80;77.30
22108;DHT22;11220;48.812;9.128;2023-07-13T12:31:04;22.70;76.40
22108;DHT22;11220;48.812;9.128;2023-07-13T12:33:31;22.70;76.90
22108;DHT22;11220;48.812;9.128;2023-07-13T12:36:01;22.70;75.80
22108;DHT22;11220;48.812;9.128;2023-07-13T12:38:27;22.70;77.20
22108;DHT22;11220;48.812;9.128;2023-07-13T12:40:53;22.80;78.60
22108;DHT22;11220;48.812;9.128;2023-07-13T12:43:23;22.80;79.00
22108;DHT22;11220;48.812;9.128;2023-07-13T12:45:57;22.80;79.40
22108;DHT22;11220;48.812;9.128;2023-07-13T12:48:23;22.80;78.00
22108;DHT22;11220;48.812;9.128;2023-07-13T12:50:49;23.30;79.40
22108;DHT22;11220;48.812;9.128;2023-07-13T12:53:37;23.00;80.10
22108;DHT22;11220;48.812;9.128;2023-07-13T12:56:05;23.00;79.70
22108;DHT22;11220;48.812;9.128;2023-07-13T12:58:38;23.10;78.90
22108;DHT22;11220;48.812;9.128;2023-07-13T13:01:07;23.10;79.60
22108;DHT22;11220;48.812;9.128;2023-07-13T13:03:39;23.40;81.20
22108;DHT22;11220;48.812;9.128;2023-07-13T13:06:27;23.20;80.20
22108;DHT22;11220;48.812;9.128;2023-07-13T13:08:58;23.20;79.00
22108;DHT22;11220;48.812;9.128;2023-07-13T13:11:24;23.30;79.60
22108;DHT22;11220;48.812;9.128;2023-07-13T13:13:51;23.20;79.20
22108;DHT22;11220;48.812;9.128;2023-07-13T13:16:22;23.20;78.80
22108;DHT22;11220;48.812;9.128;2023-07-13T13:18:50;23.20;78.90
22108;DHT22;11220;48.812;9.128;2023-07-13T13:21:17;23.20;78.80
22108;DHT22;11220;48.812;9.128;2023-07-13T13:23:43;23.20;77.40
22108;DHT22;11220;48.812;9.128;2023-07-13T13:26:12;23.20;79.20
22108;DHT22;11220;48.812;9.128;2023-07-13T13:28:38;23.10;77.70
22108;DHT22;11220;48.812;9.128;2023-07-13T13:31:03;23.10;75.70
22108;DHT22;11220;48.812;9.128;2023-07-13T13:33:29;23.10;75.00
22108;DHT22;11220;48.812;9.128;2023-07-13T13:35:56;23.10;75.30
22108;DHT22;11220;48.812;9.128;2023-07-13T13:38:26;23.10;76.20
22108;DHT22;11220;48.812;9.128;2023-07-13T13:40:52;23.20;77.20
22108;DHT22;11220;48.812;9.128;2023-07-13T13:43:20;23.20;75.80
22108;DHT22;11220;48.812;9.128;2023-07-13T13:45:46;23.20;74.50
22108;DHT22;11220;48.812;9.128;2023-07-13T13:48:24;23.20;75.20
22108;DHT22;11220;48.812;9.128;2023-07-13T13:50:55;23.20;75.90
22108;DHT22;11220;48.812;9.128;2023-07-13T13:53:21;23.20;75.10
22108;DHT22;11220;48.812;9.128;2023-07-13T13:55:49;23.30;75.70
22108;DHT22;11220;48.812;9.128;2023-07-13T13:58:15;23.30;75.60
22108;DHT22;11220;48.812;9.128;2023-07-13T14:00:40;23.30;76.10
22108;DHT22;11220;48.812;9.128;2023-07-13T14:03:15;23.30;76.30
22108;DHT22;11220;48.812;9.128;2023-07-13T14:05:42;23.40;75.70
22108;DHT22;11220;48.812;9.128;2023-07-13T14:08:17;23.40;76.70
22108;DHT22;11220;48.812;9.128;2023-07-13T14:10:45;23.50;76.70
22108;DHT22;11220;48.812;9.128;2023-07-13T14:13:38;23.50;75.40
22108;DHT22;11220;48.812;9.128;2023-07-13T14:16:17;23.50;74.90
22108;DHT22;11220;48.812;9.128;2023-07-13T14:18:47;23.50;74.40
22108;DHT22;11220;48.812;9.128;2023-07-13T14:21:20;23.50;74.00
22108;DHT22;11220;48.812;9.128;2023-07-13T14:23:48;23.50;74.60
22108;DHT22;11220;48.812;9.128;2023-07-13T14:26:19;23.50;74.20
22108;DHT22;11220;48.812;9.128;2023-07-13T14:28:50;23.50;74.80
22108;DHT22;11220;48.812;9.128;2023-07-13T14:31:17;23.60;74.70
22108;DHT22;11220;48.812;9.128;2023-07-13T14:33:43;23.60;74.00
22108;DHT22;11220;48.812;9.128;2023-07-13T14:36:23;23.60;74.70
22108;DHT22;11220;48.812;9.128;2023-07-13T14:38:50;23.60;74.20
22108;DHT22;11220;48.812;9.128;2023-07-13T14:41:16;23.60;73.00
22108;DHT22;11220;48.812;9.128;2023-07-13T14:43:41;23.70;73.00
22108;DHT22;11220;48.812;9.128;2023-07-13T14:46:26;23.80;73.00
22108;DHT22;11220;48.812;9.128;2023-07-13T14:48:59;23.70;73.90
22108;DHT22;11220;48.812;9.128;2023-07-13T14:51:26;23.70;73.90
22108;DHT22;11220;48.812;9.128;2023-07-13T14:53:51;23.70;73.00
22108;DHT22;11220;48.812;9.128;2023-07-13T14:56:17;23.60;73.00
22108;DHT22;11220;48.812;9.128;2023-07-13T14:58:42;23.60;73.20
22108;DHT22;11220;48.812;9.128;2023-07-13T15:01:13;23.70;72.70
22108;DHT22;11220;48.812;9.128;2023-07-13T15:03:43;23.60;73.40
22108;DHT22;11220;48.812;9.128;2023-07-13T15:06:11;23.70;73.50
22108;DHT22;11220;48.812;9.128;2023-07-13T15:08:37;23.70;73.30
22108;DHT22;11220;48.812;9.128;2023-07-13T15:11:03;23.90;73.00
22108;DHT22;11220;48.812;9.128;2023-07-13T15:13:30;23.80;72.80
22108;DHT22;11220;48.812;9.128;2023-07-13T15:16:23;23.80;73.50
22108;DHT22;11220;48.812;9.128;2023-07-13T15:18:50;23.90;74.70
22108;DHT22;11220;48.812;9.128;2023-07-13T15:21:21;23.90;73.90
22108;DHT22;11220;48.812;9.128;2023-07-13T15:23:47;23.90;73.60
22108;DHT22;11220;48.812;9.128;2023-07-13T15:26:17;23.90;73.50
22108;DHT22;11220;48.812;9.128;2023-07-13T15:28:47;24.00;74.00
22108;DHT22;11220;48.812;9.128;2023-07-13T15:31:22;24.00;72.70
22108;DHT22;11220;48.812;9.128;2023-07-13T15:33:50;24.00;72.30
22108;DHT22;11220;48.812;9.128;2023-07-13T15:36:18;24.00;73.20
22108;DHT22;11220;48.812;9.128;2023-07-13T15:38:44;24.10;74.50
22108;DHT22;11220;48.812;9.128;2023-07-13T15:41:17;24.10;73.70
22108;DHT22;11220;48.812;9.128;2023-07-13T15:43:43;24.20;73.10
22108;DHT22;11220;48.812;9.128;2023-07-13T15:46:09;24.20;72.40
22108;DHT22;11220;48.812;9.128;2023-07-13T15:48:35;24.20;72.30
22108;DHT22;11220;48.812;9.128;2023-07-13T15:51:02;24.20;72.40
22108;DHT22;11220;48.812;9.128;2023-07-13T15:53:31;24.20;72.40
22108;DHT22;11220;48.812;9.128;2023-07-13T15:55:58;24.20;72.10
22108;DHT22;11220;48.812;9.128;2023-07-13T15:58:24;24.20;73.10
22108;DHT22;11220;48.812;9.128;2023-07-13T16:00:51;24.50;71.50
22108;DHT22;11220;48.812;9.128;2023-07-13T16:03:17;24.20;72.30
22108;DHT22;11220;48.812;9.128;2023-07-13T16:05:43;24.20;72.60
22108;DHT22;11220;48.812;9.128;2023-07-13T16:08:27;24.10;72.00
22108;DHT22;11220;48.812;9.128;2023-07-13T16:10:55;24.70;72.20
22108;DHT22;11220;48.812;9.128;2023-07-13T16:13:21;25.40;74.10